sensor_id;sensor_type;location;lat;lon;timestamp;pressure;altitude;pressure_sealevel;temperature;humidity
39823;BME280;25499;53.958;10.970;2023-03-11T07:49:36;100310.13;;;0.76;100.00
39823;BME280;25499;53.958;10.970;2023-03-11T07:52:01;100308.16;;;0.96;100.00
39823;BME280;25499;53.958;10.970;2023-03-11T07:54:26;100311.38;;;1.19;100.00
39823;BME280;25499;53.958;10.970;2023-03-11T07:56:52;100310.66;;;1.25;100.00
39823;BME280;25499;53.958;10.970;2023-03-11T07:59:17;100325.16;;;1.55;100.00
39823;BME280;25499;53.958;10.970;2023-03-11T08:01:43;100320.28;;;1.65;100.00
39823;BME280;25499;53.958;10.970;2023-03-11T08:04:12;100321.59;;;1.49;100.00
39823;BME280;25499;53.958;10.970;2023-03-11T08:06:38;100335.28;;;1.50;100.00
39823;BME280;25499;53.958;10.970;2023-03-11T08:09:07;100334.88;;;1.68;100.00
39823;BME280;25499;53.958;10.970;2023-03-11T08:11:34;100337.78;;;1.80;100.00
39823;BME280;25499;53.958;10.970;2023-03-11T08:14:00;100339.06;;;1.98;100.00
39823;BME280;25499;53.958;10.970;2023-03-11T08:16:26;100330.09;;;1.80;99.55
39823;BME280;25499;53.958;10.970;2023-03-11T08:18:52;100343.44;;;2.00;99.45
39823;BME280;25499;53.958;10.970;2023-03-11T08:21:23;100355.09;;;2.22;98.64
39823;BME280;25499;53.958;10.970;2023-03-11T08:23:50;100356.28;;;2.37;98.00
39823;BME280;25499;53.958;10.970;2023-03-11T08:26:20;100361.88;;;2.20;97.79
39823;BME280;25499;53.958;10.970;2023-03-11T08:28:46;100358.75;;;1.97;97.19
39823;BME280;25499;53.958;10.970;2023-03-11T08:31:21;100356.44;;;1.73;97.01
39823;BME280;25499;53.958;10.970;2023-03-11T08:33:49;100358.72;;;1.64;96.89
39823;BME280;25499;53.958;10.970;2023-03-11T08:36:15;100356.16;;;1.64;96.88
39823;BME280;25499;53.958;10.970;2023-03-11T08:38:41;100354.06;;;1.49;96.90
39823;BME280;25499;53.958;10.970;2023-03-11T08:41:06;100368.41;;;1.42;97.49
39823;BME280;25499;53.958;10.970;2023-03-11T08:43:32;100384.53;;;1.38;97.63
39823;BME280;25499;53.958;10.970;2023-03-11T08:46:02;100375.09;;;1.37;97.69
39823;BME280;25499;53.958;10.970;2023-03-11T08:48:28;100384.34;;;1.32;97.55
39823;BME280;25499;53.958;10.970;2023-03-11T08:50:54;100385.22;;;1.31;97.84
39823;BME280;25499;53.958;10.970;2023-03-11T08:53:21;100396.66;;;1.44;98.07
39823;BME280;25499;53.958;10.970;2023-03-11T08:55:48;100408.22;;;1.92;98.42
39823;BME280;25499;53.958;10.970;2023-03-11T08:58:14;100420.88;;;2.19;98.14
39823;BME280;25499;53.958;10.970;2023-03-11T09:00:40;100418.81;;;2.39;97.42
39823;BME280;25499;53.958;10.970;2023-03-11T09:03:05;100418.63;;;2.66;96.43
39823;BME280;25499;53.958;10.970;2023-03-11T09:05:30;100414.06;;;2.91;95.64
39823;BME280;25499;53.958;10.970;2023-03-11T09:07:56;100412.25;;;3.26;94.52
39823;BME280;25499;53.958;10.970;2023-03-11T09:10:21;100422.47;;;3.66;93.64
39823;BME280;25499;53.958;10.970;2023-03-11T09:12:48;100403.41;;;3.56;92.36
39823;BME280;25499;53.958;10.970;2023-03-11T09:15:13;100411.22;;;4.06;91.60
39823;BME280;25499;53.958;10.970;2023-03-11T09:17:39;100400.72;;;3.96;90.56
39823;BME280;25499;53.958;10.970;2023-03-11T09:20:04;100407.91;;;4.15;90.39
39823;BME280;25499;53.958;10.970;2023-03-11T09:22:30;100410.97;;;4.41;89.48
39823;BME280;25499;53.958;10.970;2023-03-11T09:24:56;100403.34;;;4.51;88.25
39823;BME280;25499;53.958;10.970;2023-03-11T09:27:22;100387.75;;;4.43;86.71
39823;BME280;25499;53.958;10.970;2023-03-11T09:29:47;100368.72;;;4.33;85.63
39823;BME280;25499;53.958;10.970;2023-03-11T09:32:13;100395.91;;;4.69;85.76
39823;BME280;25499;53.958;10.970;2023-03-11T09:34:40;100385.53;;;4.66;85.19
39823;BME280;25499;53.958;10.970;2023-03-11T09:37:05;100383.94;;;4.74;84.11
39823;BME280;25499;53.958;10.970;2023-03-11T09:39:31;100374.44;;;4.70;83.89
39823;BME280;25499;53.958;10.970;2023-03-11T09:42:01;100374.88;;;5.04;82.69
39823;BME280;25499;53.958;10.970;2023-03-11T09:44:41;100389.97;;;5.39;81.76
39823;BME280;25499;53.958;10.970;2023-03-11T09:52:43;100404.44;;;6.00;80.39
39823;BME280;25499;53.958;10.970;2023-03-11T09:55:29;100382.75;;;5.88;79.17
39823;BME280;25499;53.958;10.970;2023-03-11T09:57:56;100357.81;;;5.93;77.58
39823;BME280;25499;53.958;10.970;2023-03-11T10:00:24;100355.31;;;5.96;76.50
39823;BME280;25499;53.958;10.970;2023-03-11T10:02:49;100354.25;;;5.82;75.73
39823;BME280;25499;53.958;10.970;2023-03-11T10:05:24;100381.38;;;6.23;75.94
39823;BME280;25499;53.958;10.970;2023-03-11T10:07:57;100379.97;;;6.65;75.48
39823;BME280;25499;53.958;10.970;2023-03-11T10:10:26;100363.66;;;6.75;74.42
39823;BME280;25499;53.958;10.970;2023-03-11T10:15:55;100354.19;;;6.74;72.49
39823;BME280;25499;53.958;10.970;2023-03-11T10:19:08;100362.38;;;7.77;71.40
39823;BME280;25499;53.958;10.970;2023-03-11T10:21:49;100291.78;;;9.75;65.11
39823;BME280;25499;53.958;10.970;2023-03-11T10:24:49;100222.66;;;11.72;58.46
39823;BME280;25499;53.958;10.970;2023-03-11T10:27:27;100201.00;;;13.43;52.13
39823;BME280;25499;53.958;10.970;2023-03-11T10:30:08;100193.81;;;13.53;50.45
39823;BME280;25499;53.958;10.970;2023-03-11T10:32:55;100198.13;;;12.34;51.10
39823;BME280;25499;53.958;10.970;2023-03-11T10:35:29;100170.28;;;12.33;50.50
39823;BME280;25499;53.958;10.970;2023-03-11T10:38:36;100193.09;;;11.17;51.71
39823;BME280;25499;53.958;10.970;2023-03-11T10:41:16;100208.38;;;10.81;52.53
39823;BME280;25499;53.958;10.970;2023-03-11T10:46:23;100294.25;;;9.96;55.64
39823;BME280;25499;53.958;10.970;2023-03-11T10:48:49;100263.38;;;9.47;56.46
39823;BME280;25499;53.958;10.970;2023-03-11T10:51:21;100258.44;;;9.01;56.84
39823;BME280;25499;53.958;10.970;2023-03-11T10:53:55;100283.56;;;8.99;57.49
39823;BME280;25499;53.958;10.970;2023-03-11T10:56:40;100292.06;;;9.31;57.62
39823;BME280;25499;53.958;10.970;2023-03-11T11:02:38;100268.69;;;9.30;56.86
39823;BME280;25499;53.958;10.970;2023-03-11T11:04:39;100279.94;;;9.30;57.25
39823;BME280;25499;53.958;10.970;2023-03-11T11:12:37;100319.03;;;10.39;56.74
39823;BME280;25499;53.958;10.970;2023-03-11T11:15:36;100292.72;;;10.67;55.84
39823;BME280;25499;53.958;10.970;2023-03-11T11:18:14;100221.94;;;10.34;53.93
39823;BME280;25499;53.958;10.970;2023-03-11T11:20:57;100229.91;;;10.15;54.36
39823;BME280;25499;53.958;10.970;2023-03-11T11:26:03;100296.69;;;10.98;54.79
39823;BME280;25499;53.958;10.970;2023-03-11T11:28:30;100257.94;;;10.71;54.57
39823;BME280;25499;53.958;10.970;2023-03-11T11:31:05;100263.06;;;11.44;53.58
39823;BME280;25499;53.958;10.970;2023-03-11T11:33:35;100255.94;;;11.56;53.19
39823;BME280;25499;53.958;10.970;2023-03-11T11:36:03;100214.44;;;11.44;51.60
39823;BME280;25499;53.958;10.970;2023-03-11T11:38:30;100224.47;;;11.67;51.42
39823;BME280;25499;53.958;10.970;2023-03-11T11:41:02;100225.72;;;11.45;51.51
39823;BME280;25499;53.958;10.970;2023-03-11T11:44:02;100171.56;;;11.61;49.99
39823;BME280;25499;53.958;10.970;2023-03-11T11:46:37;100179.69;;;11.42;50.40
39823;BME280;25499;53.958;10.970;2023-03-11T11:49:22;100169.09;;;11.53;49.27
39823;BME280;25499;53.958;10.970;2023-03-11T11:51:54;100237.44;;;12.23;50.98
39823;BME280;25499;53.958;10.970;2023-03-11T11:57:01;100207.88;;;12.24;50.10
39823;BME280;25499;53.958;10.970;2023-03-11T11:59:34;100176.91;;;12.51;49.23
39823;BME280;25499;53.958;10.970;2023-03-11T12:05:31;100143.16;;;13.20;46.05
39823;BME280;25499;53.958;10.970;2023-03-11T12:11:07;100181.25;;;14.02;45.91
39823;BME280;25499;53.958;10.970;2023-03-11T12:27:28;100152.03;;;14.79;44.06
39823;BME280;25499;53.958;10.970;2023-03-11T12:30:04;100126.47;;;14.55;44.33
39823;BME280;25499;53.958;10.970;2023-03-11T12:32:40;100165.78;;;15.42;43.99
39823;BME280;25499;53.958;10.970;2023-03-11T12:37:39;100125.47;;;15.70;41.96
39823;BME280;25499;53.958;10.970;2023-03-11T12:45:51;100065.38;;;14.83;41.88
39823;BME280;25499;53.958;10.970;2023-03-11T12:48:33;100139.44;;;15.45;42.87
39823;BME280;25499;53.958;10.970;2023-03-11T12:50:59;100029.50;;;14.59;41.46
39823;BME280;25499;53.958;10.970;2023-03-11T12:53:47;100102.03;;;15.13;42.55
39823;BME280;25499;53.958;10.970;2023-03-11T12:56:44;100120.34;;;15.41;43.26
39823;BME280;25499;53.958;10.970;2023-03-11T13:02:23;99992.94;;;15.09;40.59
39823;BME280;25499;53.958;10.970;2023-03-11T13:05:11;100017.75;;;14.42;41.02
39823;BME280;25499;53.958;10.970;2023-03-11T13:07:45;100096.81;;;14.25;43.76
39823;BME280;25499;53.958;10.970;2023-03-11T13:10:17;100040.59;;;14.09;43.09
39823;BME280;25499;53.958;10.970;2023-03-11T13:23:31;100094.44;;;12.41;46.96
39823;BME280;25499;53.958;10.970;2023-03-11T13:40:54;100080.56;;;9.56;50.95
39823;BME280;25499;53.958;10.970;2023-03-11T13:43:22;100149.63;;;9.81;51.96
39823;BME280;25499;53.958;10.970;2023-03-11T13:45:55;100167.13;;;10.48;51.89
39823;BME280;25499;53.958;10.970;2023-03-11T13:48:49;100154.72;;;10.68;51.21
39823;BME280;25499;53.958;10.970;2023-03-11T13:54:03;100141.84;;;9.78;52.20
39823;BME280;25499;53.958;10.970;2023-03-11T13:56:37;100154.91;;;10.54;51.89
39823;BME280;25499;53.958;10.970;2023-03-11T14:01:56;100113.19;;;8.79;52.34
39823;BME280;25499;53.958;10.970;2023-03-11T14:04:31;100109.97;;;8.25;53.43
39823;BME280;25499;53.958;10.970;2023-03-11T14:06:58;100124.81;;;7.69;54.65
39823;BME280;25499;53.958;10.970;2023-03-11T14:09:33;100161.97;;;7.44;55.87
39823;BME280;25499;53.958;10.970;2023-03-11T14:12:03;100193.00;;;7.10;57.29
39823;BME280;25499;53.958;10.970;2023-03-11T14:14:51;100203.38;;;7.10;58.10
39823;BME280;25499;53.958;10.970;2023-03-11T14:17:19;100210.25;;;7.05;58.28
39823;BME280;25499;53.958;10.970;2023-03-11T14:20:02;100203.41;;;7.78;57.42
39823;BME280;25499;53.958;10.970;2023-03-11T14:22:30;100200.81;;;7.91;56.74
39823;BME280;25499;53.958;10.970;2023-03-11T14:24:57;100182.66;;;7.97;56.33
39823;BME280;25499;53.958;10.970;2023-03-11T14:27:24;100174.03;;;7.96;56.01
39823;BME280;25499;53.958;10.970;2023-03-11T14:32:29;100142.13;;;7.60;55.52
39823;BME280;25499;53.958;10.970;2023-03-11T14:34:56;100168.00;;;7.68;56.08
39823;BME280;25499;53.958;10.970;2023-03-11T14:39:49;100187.88;;;7.41;56.85
39823;BME280;25499;53.958;10.970;2023-03-11T14:45:34;100214.63;;;7.33;57.99
39823;BME280;25499;53.958;10.970;2023-03-11T14:50:19;100224.16;;;7.51;57.95
39823;BME280;25499;53.958;10.970;2023-03-11T14:55:31;100191.31;;;7.31;57.54
39823;BME280;25499;53.958;10.970;2023-03-11T15:00:53;100200.81;;;7.75;56.97
39823;BME280;25499;53.958;10.970;2023-03-11T15:03:31;100177.53;;;7.51;56.81
39823;BME280;25499;53.958;10.970;2023-03-11T15:06:07;100168.84;;;7.07;56.97
39823;BME280;25499;53.958;10.970;2023-03-11T15:08:37;100193.84;;;6.96;58.00
39823;BME280;25499;53.958;10.970;2023-03-11T15:13:35;100215.34;;;6.76;59.37
39823;BME280;25499;53.958;10.970;2023-03-11T15:16:06;100203.28;;;6.77;59.69
39823;BME280;25499;53.958;10.970;2023-03-11T15:18:36;100223.94;;;6.72;59.95
39823;BME280;25499;53.958;10.970;2023-03-11T15:23:49;100204.78;;;6.25;60.35
39823;BME280;25499;53.958;10.970;2023-03-11T15:26:35;100218.44;;;6.07;60.89
39823;BME280;25499;53.958;10.970;2023-03-11T15:29:15;100239.16;;;6.13;61.38
39823;BME280;25499;53.958;10.970;2023-03-11T15:31:44;100232.06;;;5.89;61.56
39823;BME280;25499;53.958;10.970;2023-03-11T15:36:44;100252.69;;;5.85;62.65
39823;BME280;25499;53.958;10.970;2023-03-11T15:39:15;100254.41;;;5.81;62.77
39823;BME280;25499;53.958;10.970;2023-03-11T15:41:43;100241.44;;;5.78;62.44
39823;BME280;25499;53.958;10.970;2023-03-11T15:44:36;100242.31;;;5.80;62.40
39823;BME280;25499;53.958;10.970;2023-03-11T15:47:11;100253.50;;;5.76;62.30
39823;BME280;25499;53.958;10.970;2023-03-11T15:49:37;100251.72;;;5.72;62.25
39823;BME280;25499;53.958;10.970;2023-03-11T15:52:03;100243.97;;;5.67;62.43
39823;BME280;25499;53.958;10.970;2023-03-11T15:54:28;100250.78;;;5.60;62.57
39823;BME280;25499;53.958;10.970;2023-03-11T15:56:55;100270.69;;;5.72;62.99
39823;BME280;25499;53.958;10.970;2023-03-11T15:59:22;100247.28;;;5.55;62.71
39823;BME280;25499;53.958;10.970;2023-03-11T16:01:48;100255.84;;;5.48;62.34
39823;BME280;25499;53.958;10.970;2023-03-11T16:04:18;100323.88;;;5.56;64.87
39823;BME280;25499;53.958;10.970;2023-03-11T16:06:45;100374.69;;;5.57;67.55
39823;BME280;25499;53.958;10.970;2023-03-11T16:09:12;100383.22;;;5.50;69.19
39823;BME280;25499;53.958;10.970;2023-03-11T16:11:38;100394.06;;;5.21;70.81
39823;BME280;25499;53.958;10.970;2023-03-11T16:14:04;100400.91;;;5.21;72.17
39823;BME280;25499;53.958;10.970;2023-03-11T16:16:30;100387.25;;;5.28;72.24
39823;BME280;25499;53.958;10.970;2023-03-11T16:18:55;100387.97;;;5.16;72.35
39823;BME280;25499;53.958;10.970;2023-03-11T16:21:23;100391.56;;;5.31;72.54
39823;BME280;25499;53.958;10.970;2023-03-11T16:23:52;100381.19;;;5.25;72.61
39823;BME280;25499;53.958;10.970;2023-03-11T16:26:18;100383.81;;;5.26;72.50
39823;BME280;25499;53.958;10.970;2023-03-11T16:28:46;100373.34;;;5.17;72.25
39823;BME280;25499;53.958;10.970;2023-03-11T16:31:11;100377.44;;;5.01;72.74
39823;BME280;25499;53.958;10.970;2023-03-11T16:33:36;100390.41;;;5.07;73.00
39823;BME280;25499;53.958;10.970;2023-03-11T16:36:02;100373.25;;;5.09;72.57
39823;BME280;25499;53.958;10.970;2023-03-11T16:38:29;100354.38;;;5.13;71.52
39823;BME280;25499;53.958;10.970;2023-03-11T16:41:00;100352.72;;;5.18;71.07
39823;BME280;25499;53.958;10.970;2023-03-11T16:43:27;100337.16;;;5.12;70.35
39823;BME280;25499;53.958;10.970;2023-03-11T16:45:52;100324.25;;;5.09;69.44
39823;BME280;25499;53.958;10.970;2023-03-11T16:48:22;100325.13;;;5.11;68.99
39823;BME280;25499;53.958;10.970;2023-03-11T16:50:48;100311.25;;;5.03;68.51
39823;BME280;25499;53.958;10.970;2023-03-11T16:53:14;100311.22;;;5.00;68.59
39823;BME280;25499;53.958;10.970;2023-03-11T16:55:45;100325.72;;;4.92;68.69
39823;BME280;25499;53.958;10.970;2023-03-11T16:58:12;100313.63;;;4.86;68.81
39823;BME280;25499;53.958;10.970;2023-03-11T17:00:41;100341.25;;;4.95;69.51
39823;BME280;25499;53.958;10.970;2023-03-11T17:03:13;100351.44;;;4.85;70.02
39823;BME280;25499;53.958;10.970;2023-03-11T17:05:39;100359.16;;;4.82;70.29
39823;BME280;25499;53.958;10.970;2023-03-11T17:08:05;100351.94;;;4.58;70.50
39823;BME280;25499;53.958;10.970;2023-03-11T17:10:42;100369.00;;;4.52;71.39
39823;BME280;25499;53.958;10.970;2023-03-11T17:13:09;100367.88;;;4.34;71.87
39823;BME280;25499;53.958;10.970;2023-03-11T17:15:35;100382.38;;;4.29;72.62
39823;BME280;25499;53.958;10.970;2023-03-11T17:18:05;100393.56;;;4.28;72.80
39823;BME280;25499;53.958;10.970;2023-03-11T17:20:30;100397.69;;;4.20;73.26
39823;BME280;25499;53.958;10.970;2023-03-11T17:22:56;100400.25;;;4.18;73.66
39823;BME280;25499;53.958;10.970;2023-03-11T17:25:22;100407.06;;;4.15;73.86
39823;BME280;25499;53.958;10.970;2023-03-11T17:27:48;100422.56;;;4.16;74.30
39823;BME280;25499;53.958;10.970;2023-03-11T17:30:14;100416.38;;;4.06;74.25
39823;BME280;25499;53.958;10.970;2023-03-11T17:32:39;100417.16;;;4.02;74.68
39823;BME280;25499;53.958;10.970;2023-03-11T17:35:05;100447.38;;;4.11;74.95
39823;BME280;25499;53.958;10.970;2023-03-11T17:37:31;100446.44;;;4.09;75.17
39823;BME280;25499;53.958;10.970;2023-03-11T17:39:56;100452.41;;;4.06;75.38
39823;BME280;25499;53.958;10.970;2023-03-11T17:42:22;100450.63;;;4.04;75.63
39823;BME280;25499;53.958;10.970;2023-03-11T17:44:54;100454.97;;;4.05;75.75
39823;BME280;25499;53.958;10.970;2023-03-11T17:47:20;100453.13;;;3.98;76.13
39823;BME280;25499;53.958;10.970;2023-03-11T17:49:50;100465.38;;;4.09;76.08
39823;BME280;25499;53.958;10.970;2023-03-11T17:52:16;100456.69;;;4.04;76.06
39823;BME280;25499;53.958;10.970;2023-03-11T17:54:42;100453.16;;;3.99;75.90
39823;BME280;25499;53.958;10.970;2023-03-11T17:57:08;100494.63;;;4.13;76.07
39823;BME280;25499;53.958;10.970;2023-03-11T17:59:33;100515.13;;;4.08;78.01
39823;BME280;25499;53.958;10.970;2023-03-11T18:01:59;100534.97;;;3.71;81.10
39823;BME280;25499;53.958;10.970;2023-03-11T18:04:24;100555.41;;;3.62;83.73
39823;BME280;25499;53.958;10.970;2023-03-11T18:06:52;100556.78;;;3.48;85.53
39823;BME280;25499;53.958;10.970;2023-03-11T18:09:18;100553.84;;;3.70;86.08
39823;BME280;25499;53.958;10.970;2023-03-11T18:11:43;100540.69;;;3.57;85.88
39823;BME280;25499;53.958;10.970;2023-03-11T18:14:08;100538.81;;;3.49;86.19
39823;BME280;25499;53.958;10.970;2023-03-11T18:16:34;100545.66;;;3.49;86.34
39823;BME280;25499;53.958;10.970;2023-03-11T18:18:59;100556.13;;;3.57;86.71
39823;BME280;25499;53.958;10.970;2023-03-11T18:21:27;100555.13;;;3.50;87.31
39823;BME280;25499;53.958;10.970;2023-03-11T18:23:55;100563.41;;;3.36;87.83
39823;BME280;25499;53.958;10.970;2023-03-11T18:26:22;100554.56;;;3.25;88.03
39823;BME280;25499;53.958;10.970;2023-03-11T18:28:52;100554.41;;;3.19;88.79
39823;BME280;25499;53.958;10.970;2023-03-11T18:31:19;100558.72;;;3.20;88.78
39823;BME280;25499;53.958;10.970;2023-03-11T18:33:56;100553.81;;;2.94;89.41
39823;BME280;25499;53.958;10.970;2023-03-11T18:36:34;100570.47;;;2.74;90.43
39823;BME280;25499;53.958;10.970;2023-03-11T18:39:00;100574.44;;;2.63;91.28
39823;BME280;25499;53.958;10.970;2023-03-11T18:41:28;100572.75;;;2.63;91.91
39823;BME280;25499;53.958;10.970;2023-03-11T18:43:56;100581.41;;;2.67;92.65
39823;BME280;25499;53.958;10.970;2023-03-11T18:46:22;100574.06;;;2.49;93.30
39823;BME280;25499;53.958;10.970;2023-03-11T18:48:51;100576.28;;;2.67;94.07
39823;BME280;25499;53.958;10.970;2023-03-11T18:51:16;100571.72;;;2.56;94.44
39823;BME280;25499;53.958;10.970;2023-03-11T18:53:42;100568.16;;;2.51;95.36
39823;BME280;25499;53.958;10.970;2023-03-11T18:56:10;100565.28;;;2.40;95.62
39823;BME280;25499;53.958;10.970;2023-03-11T18:58:36;100565.66;;;2.54;96.14
39823;BME280;25499;53.958;10.970;2023-03-11T19:01:09;100575.13;;;2.55;96.80
39823;BME280;25499;53.958;10.970;2023-03-11T19:03:36;100582.88;;;2.57;97.18
39823;BME280;25499;53.958;10.970;2023-03-11T19:06:02;100582.91;;;2.58;97.20
39823;BME280;25499;53.958;10.970;2023-03-11T19:08:28;100570.44;;;2.40;97.94
39823;BME280;25499;53.958;10.970;2023-03-11T19:10:54;100577.06;;;2.64;97.97
39823;BME280;25499;53.958;10.970;2023-03-11T19:13:19;100581.38;;;2.65;98.22
39823;BME280;25499;53.958;10.970;2023-03-11T19:15:45;100584.72;;;2.63;98.07
39823;BME280;25499;53.958;10.970;2023-03-11T19:18:12;100582.19;;;2.64;98.11
39823;BME280;25499;53.958;10.970;2023-03-11T19:20:38;100582.06;;;2.59;98.22
39823;BME280;25499;53.958;10.970;2023-03-11T19:23:04;100595.84;;;2.61;98.42
39823;BME280;25499;53.958;10.970;2023-03-11T19:25:33;100596.06;;;2.71;98.79
39823;BME280;25499;53.958;10.970;2023-03-11T19:27:59;100595.16;;;2.69;98.91
39823;BME280;25499;53.958;10.970;2023-03-11T19:30:25;100594.06;;;2.59;99.11
39823;BME280;25499;53.958;10.970;2023-03-11T19:32:50;100597.44;;;2.58;99.51
39823;BME280;25499;53.958;10.970;2023-03-11T19:35:19;100602.78;;;2.66;99.96
39823;BME280;25499;53.958;10.970;2023-03-11T19:37:45;100608.66;;;2.60;100.00
39823;BME280;25499;53.958;10.970;2023-03-11T19:40:11;100608.16;;;2.75;100.00
39823;BME280;25499;53.958;10.970;2023-03-11T19:42:38;100603.91;;;2.75;100.00
39823;BME280;25499;53.958;10.970;2023-03-11T19:45:04;100604.69;;;2.73;100.00
39823;BME280;25499;53.958;10.970;2023-03-11T19:47:29;100598.50;;;2.66;100.00
39823;BME280;25499;53.958;10.970;2023-03-11T19:49:55;100599.31;;;2.64;100.00
39823;BME280;25499;53.958;10.970;2023-03-11T19:52:20;100602.84;;;2.67;100.00
39823;BME280;25499;53.958;10.970;2023-03-11T19:54:47;100606.34;;;2.71;100.00
39823;BME280;25499;53.958;10.970;2023-03-11T19:57:14;100609.59;;;2.64;100.00
39823;BME280;25499;53.958;10.970;2023-03-11T19:59:40;100609.50;;;2.60;100.00
39823;BME280;25499;53.958;10.970;2023-03-11T20:02:09;100611.59;;;2.74;100.00
39823;BME280;25499;53.958;10.970;2023-03-11T20:04:34;100608.34;;;2.81;100.00
39823;BME280;25499;53.958;10.970;2023-03-11T20:07:00;100614.94;;;2.71;100.00
39823;BME280;25499;53.958;10.970;2023-03-11T20:09:25;100616.47;;;2.65;100.00
39823;BME280;25499;53.958;10.970;2023-03-11T20:11:51;100629.34;;;2.66;100.00
39823;BME280;25499;53.958;10.970;2023-03-11T20:14:16;100630.22;;;2.65;100.00
39823;BME280;25499;53.958;10.970;2023-03-11T20:16:42;100636.34;;;2.70;100.00
39823;BME280;25499;53.958;10.970;2023-03-11T20:19:08;100643.19;;;2.71;100.00
39823;BME280;25499;53.958;10.970;2023-03-11T20:21:34;100644.81;;;2.68;100.00
39823;BME280;25499;53.958;10.970;2023-03-11T20:24:03;100648.38;;;2.73;100.00
39823;BME280;25499;53.958;10.970;2023-03-11T20:26:28;100645.72;;;2.70;100.00
39823;BME280;25499;53.958;10.970;2023-03-11T20:28:55;100635.31;;;2.64;100.00
39823;BME280;25499;53.958;10.970;2023-03-11T20:31:22;100644.94;;;2.72;100.00
39823;BME280;25499;53.958;10.970;2023-03-11T20:33:49;100640.34;;;2.60;100.00
39823;BME280;25499;53.958;10.970;2023-03-11T20:36:17;100637.53;;;2.51;100.00
39823;BME280;25499;53.958;10.970;2023-03-11T20:38:49;100657.28;;;2.54;100.00
39823;BME280;25499;53.958;10.970;2023-03-11T20:41:15;100648.59;;;2.49;100.00
39823;BME280;25499;53.958;10.970;2023-03-11T20:43:41;100646.72;;;2.43;100.00
39823;BME280;25499;53.958;10.970;2023-03-11T20:46:07;100640.94;;;2.50;100.00
39823;BME280;25499;53.958;10.970;2023-03-11T20:48:33;100649.63;;;2.55;100.00
39823;BME280;25499;53.958;10.970;2023-03-11T20:51:03;100656.63;;;2.61;100.00
39823;BME280;25499;53.958;10.970;2023-03-11T20:53:30;100657.66;;;2.68;100.00
39823;BME280;25499;53.958;10.970;2023-03-11T20:56:05;100652.28;;;2.58;100.00
39823;BME280;25499;53.958;10.970;2023-03-11T20:58:30;100658.06;;;2.50;100.00
39823;BME280;25499;53.958;10.970;2023-03-11T21:00:56;100659.88;;;2.54;100.00
39823;BME280;25499;53.958;10.970;2023-03-11T21:03:21;100659.97;;;2.57;100.00
39823;BME280;25499;53.958;10.970;2023-03-11T21:05:46;100656.53;;;2.58;100.00
39823;BME280;25499;53.958;10.970;2023-03-11T21:08:12;100659.81;;;2.52;100.00
39823;BME280;25499;53.958;10.970;2023-03-11T21:10:37;100653.97;;;2.56;100.00
39823;BME280;25499;53.958;10.970;2023-03-11T21:13:04;100667.72;;;2.58;100.00
39823;BME280;25499;53.958;10.970;2023-03-11T21:15:29;100666.97;;;2.63;100.00
39823;BME280;25499;53.958;10.970;2023-03-11T21:17:55;100671.13;;;2.59;100.00
